sensor_id;sensor_type;location;lat;lon;timestamp;P1;durP1;ratioP1;P2;durP2;ratioP2
18265;SDS011;9259;48.194;16.322;2023-02-22T00:01:15;2.87;;;1.50;;
18265;SDS011;9259;48.194;16.322;2023-02-22T00:03:59;3.30;;;1.80;;
18265;SDS011;9259;48.194;16.322;2023-02-22T00:06:28;4.20;;;2.00;;
18265;SDS011;9259;48.194;16.322;2023-02-22T00:08:57;3.27;;;1.73;;
18265;SDS011;9259;48.194;16.322;2023-02-22T00:11:28;2.33;;;1.60;;
18265;SDS011;9259;48.194;16.322;2023-02-22T00:13:57;3.53;;;1.53;;
18265;SDS011;9259;48.194;16.322;2023-02-22T00:16:25;3.33;;;1.57;;
18265;SDS011;9259;48.194;16.322;2023-02-22T00:18:55;2.57;;;1.40;;
18265;SDS011;9259;48.194;16.322;2023-02-22T00:21:23;5.27;;;1.80;;
18265;SDS011;9259;48.194;16.322;2023-02-22T00:23:51;3.67;;;1.97;;
18265;SDS011;9259;48.194;16.322;2023-02-22T00:26:20;5.03;;;1.87;;
18265;SDS011;9259;48.194;16.322;2023-02-22T00:28:51;4.17;;;1.87;;
18265;SDS011;9259;48.194;16.322;2023-02-22T00:31:21;3.17;;;1.50;;
18265;SDS011;9259;48.194;16.322;2023-02-22T00:33:49;3.97;;;1.80;;
18265;SDS011;9259;48.194;16.322;2023-02-22T00:36:17;4.60;;;2.10;;
18265;SDS011;9259;48.194;16.322;2023-02-22T00:43:58;4.37;;;1.87;;
18265;SDS011;9259;48.194;16.322;2023-02-22T00:46:26;4.27;;;1.70;;
18265;SDS011;9259;48.194;16.322;2023-02-22T00:48:54;4.90;;;2.10;;
18265;SDS011;9259;48.194;16.322;2023-02-22T00:51:23;5.00;;;1.87;;
18265;SDS011;9259;48.194;16.322;2023-02-22T00:53:53;3.57;;;1.87;;
18265;SDS011;9259;48.194;16.322;2023-02-22T00:56:21;4.50;;;2.03;;
18265;SDS011;9259;48.194;16.322;2023-02-22T00:58:49;3.53;;;1.77;;
18265;SDS011;9259;48.194;16.322;2023-02-22T01:01:18;4.63;;;2.03;;
18265;SDS011;9259;48.194;16.322;2023-02-22T01:03:47;5.10;;;1.90;;
18265;SDS011;9259;48.194;16.322;2023-02-22T01:06:15;5.17;;;2.00;;
18265;SDS011;9259;48.194;16.322;2023-02-22T01:08:43;7.57;;;2.10;;
18265;SDS011;9259;48.194;16.322;2023-02-22T01:11:12;4.43;;;1.80;;
18265;SDS011;9259;48.194;16.322;2023-02-22T01:13:42;4.30;;;1.50;;
18265;SDS011;9259;48.194;16.322;2023-02-22T01:16:11;4.30;;;1.90;;
18265;SDS011;9259;48.194;16.322;2023-02-22T01:18:41;3.50;;;1.80;;
18265;SDS011;9259;48.194;16.322;2023-02-22T01:21:08;4.07;;;1.90;;
18265;SDS011;9259;48.194;16.322;2023-02-22T01:23:36;4.83;;;2.00;;
18265;SDS011;9259;48.194;16.322;2023-02-22T01:26:04;3.27;;;1.50;;
18265;SDS011;9259;48.194;16.322;2023-02-22T01:28:32;3.37;;;1.73;;
18265;SDS011;9259;48.194;16.322;2023-02-22T01:31:01;6.37;;;2.10;;
18265;SDS011;9259;48.194;16.322;2023-02-22T01:33:29;3.87;;;1.87;;
18265;SDS011;9259;48.194;16.322;2023-02-22T01:36:00;4.40;;;1.70;;
18265;SDS011;9259;48.194;16.322;2023-02-22T01:38:28;3.03;;;1.47;;
18265;SDS011;9259;48.194;16.322;2023-02-22T01:40:56;3.73;;;2.00;;
18265;SDS011;9259;48.194;16.322;2023-02-22T01:43:26;3.37;;;2.03;;
18265;SDS011;9259;48.194;16.322;2023-02-22T01:45:57;5.93;;;2.23;;
18265;SDS011;9259;48.194;16.322;2023-02-22T01:48:29;5.10;;;1.90;;
18265;SDS011;9259;48.194;16.322;2023-02-22T01:51:05;4.97;;;1.97;;
18265;SDS011;9259;48.194;16.322;2023-02-22T01:53:40;6.33;;;1.97;;
18265;SDS011;9259;48.194;16.322;2023-02-22T01:56:14;6.30;;;2.10;;
18265;SDS011;9259;48.194;16.322;2023-02-22T01:58:45;4.93;;;1.60;;
18265;SDS011;9259;48.194;16.322;2023-02-22T02:01:17;5.13;;;1.97;;
18265;SDS011;9259;48.194;16.322;2023-02-22T02:03:49;3.73;;;1.90;;
18265;SDS011;9259;48.194;16.322;2023-02-22T02:06:24;4.30;;;1.80;;
18265;SDS011;9259;48.194;16.322;2023-02-22T02:08:54;3.00;;;1.73;;
18265;SDS011;9259;48.194;16.322;2023-02-22T02:11:29;4.10;;;1.80;;
18265;SDS011;9259;48.194;16.322;2023-02-22T02:13:58;3.03;;;1.80;;
18265;SDS011;9259;48.194;16.322;2023-02-22T02:16:30;6.70;;;1.73;;
18265;SDS011;9259;48.194;16.322;2023-02-22T02:19:07;3.73;;;1.80;;
18265;SDS011;9259;48.194;16.322;2023-02-22T02:24:50;3.67;;;1.43;;
18265;SDS011;9259;48.194;16.322;2023-02-22T02:27:58;4.87;;;1.77;;
18265;SDS011;9259;48.194;16.322;2023-02-22T02:30:48;3.47;;;1.80;;
18265;SDS011;9259;48.194;16.322;2023-02-22T02:33:49;4.40;;;1.93;;
18265;SDS011;9259;48.194;16.322;2023-02-22T02:36:26;4.37;;;1.80;;
18265;SDS011;9259;48.194;16.322;2023-02-22T02:39:02;3.97;;;1.80;;
18265;SDS011;9259;48.194;16.322;2023-02-22T02:41:38;3.47;;;1.83;;
18265;SDS011;9259;48.194;16.322;2023-02-22T02:44:10;4.13;;;1.90;;
18265;SDS011;9259;48.194;16.322;2023-02-22T02:46:43;6.37;;;2.00;;
18265;SDS011;9259;48.194;16.322;2023-02-22T02:49:19;6.30;;;2.50;;
18265;SDS011;9259;48.194;16.322;2023-02-22T02:51:52;3.70;;;2.00;;
18265;SDS011;9259;48.194;16.322;2023-02-22T02:54:22;6.40;;;2.33;;
18265;SDS011;9259;48.194;16.322;2023-02-22T02:56:52;5.37;;;2.30;;
18265;SDS011;9259;48.194;16.322;2023-02-22T02:59:23;3.57;;;2.00;;
18265;SDS011;9259;48.194;16.322;2023-02-22T03:01:56;6.27;;;2.10;;
18265;SDS011;9259;48.194;16.322;2023-02-22T03:04:54;4.13;;;2.10;;
18265;SDS011;9259;48.194;16.322;2023-02-22T03:07:40;4.67;;;2.10;;
18265;SDS011;9259;48.194;16.322;2023-02-22T03:10:21;3.33;;;1.80;;
18265;SDS011;9259;48.194;16.322;2023-02-22T03:13:06;5.10;;;1.83;;
18265;SDS011;9259;48.194;16.322;2023-02-22T03:15:43;4.13;;;1.70;;
18265;SDS011;9259;48.194;16.322;2023-02-22T03:18:22;5.37;;;1.87;;
18265;SDS011;9259;48.194;16.322;2023-02-22T03:20:58;2.70;;;1.77;;
18265;SDS011;9259;48.194;16.322;2023-02-22T03:23:34;3.00;;;1.83;;
18265;SDS011;9259;48.194;16.322;2023-02-22T03:26:10;4.63;;;2.00;;
18265;SDS011;9259;48.194;16.322;2023-02-22T03:28:44;3.93;;;1.90;;
18265;SDS011;9259;48.194;16.322;2023-02-22T03:31:15;3.50;;;1.90;;
18265;SDS011;9259;48.194;16.322;2023-02-22T03:33:51;5.33;;;2.20;;
18265;SDS011;9259;48.194;16.322;2023-02-22T03:36:24;6.50;;;2.10;;
18265;SDS011;9259;48.194;16.322;2023-02-22T03:38:57;4.00;;;2.20;;
18265;SDS011;9259;48.194;16.322;2023-02-22T03:41:29;4.20;;;2.13;;
18265;SDS011;9259;48.194;16.322;2023-02-22T03:44:03;4.17;;;2.10;;
18265;SDS011;9259;48.194;16.322;2023-02-22T03:46:35;5.13;;;2.40;;
18265;SDS011;9259;48.194;16.322;2023-02-22T03:49:08;5.50;;;2.43;;
18265;SDS011;9259;48.194;16.322;2023-02-22T03:51:39;3.67;;;2.27;;
18265;SDS011;9259;48.194;16.322;2023-02-22T03:54:08;6.30;;;2.37;;
18265;SDS011;9259;48.194;16.322;2023-02-22T03:56:42;5.93;;;2.50;;
18265;SDS011;9259;48.194;16.322;2023-02-22T03:59:16;5.67;;;2.37;;
18265;SDS011;9259;48.194;16.322;2023-02-22T04:01:50;5.37;;;2.33;;
18265;SDS011;9259;48.194;16.322;2023-02-22T04:04:18;5.97;;;2.57;;
18265;SDS011;9259;48.194;16.322;2023-02-22T04:06:50;3.77;;;2.30;;
18265;SDS011;9259;48.194;16.322;2023-02-22T04:09:18;5.93;;;2.63;;
18265;SDS011;9259;48.194;16.322;2023-02-22T04:11:47;5.93;;;2.50;;
18265;SDS011;9259;48.194;16.322;2023-02-22T04:14:15;5.30;;;2.33;;
18265;SDS011;9259;48.194;16.322;2023-02-22T04:16:43;4.87;;;2.30;;
18265;SDS011;9259;48.194;16.322;2023-02-22T04:19:11;6.63;;;2.93;;
18265;SDS011;9259;48.194;16.322;2023-02-22T04:21:39;5.97;;;2.60;;
18265;SDS011;9259;48.194;16.322;2023-02-22T04:24:08;5.63;;;2.50;;
18265;SDS011;9259;48.194;16.322;2023-02-22T04:26:36;4.73;;;2.60;;
18265;SDS011;9259;48.194;16.322;2023-02-22T04:29:04;6.37;;;2.93;;
18265;SDS011;9259;48.194;16.322;2023-02-22T04:31:33;5.40;;;2.77;;
18265;SDS011;9259;48.194;16.322;2023-02-22T04:34:01;6.77;;;3.00;;
18265;SDS011;9259;48.194;16.322;2023-02-22T04:36:29;5.63;;;2.70;;
18265;SDS011;9259;48.194;16.322;2023-02-22T04:38:58;4.30;;;2.53;;
18265;SDS011;9259;48.194;16.322;2023-02-22T04:41:27;4.47;;;2.27;;
18265;SDS011;9259;48.194;16.322;2023-02-22T04:43:56;4.03;;;2.30;;
18265;SDS011;9259;48.194;16.322;2023-02-22T04:46:24;5.40;;;2.40;;
18265;SDS011;9259;48.194;16.322;2023-02-22T04:48:52;5.83;;;2.63;;
18265;SDS011;9259;48.194;16.322;2023-02-22T04:51:20;5.57;;;2.60;;
18265;SDS011;9259;48.194;16.322;2023-02-22T04:53:48;7.27;;;3.37;;
18265;SDS011;9259;48.194;16.322;2023-02-22T04:56:16;5.43;;;2.70;;
18265;SDS011;9259;48.194;16.322;2023-02-22T04:58:45;4.97;;;2.43;;
18265;SDS011;9259;48.194;16.322;2023-02-22T05:01:13;6.23;;;2.63;;
18265;SDS011;9259;48.194;16.322;2023-02-22T05:03:42;5.83;;;2.43;;
18265;SDS011;9259;48.194;16.322;2023-02-22T05:06:10;7.03;;;2.97;;
18265;SDS011;9259;48.194;16.322;2023-02-22T05:08:38;6.07;;;2.50;;
18265;SDS011;9259;48.194;16.322;2023-02-22T05:11:06;5.00;;;2.60;;
18265;SDS011;9259;48.194;16.322;2023-02-22T05:13:34;5.87;;;2.60;;
18265;SDS011;9259;48.194;16.322;2023-02-22T05:16:04;6.53;;;2.43;;
18265;SDS011;9259;48.194;16.322;2023-02-22T05:18:32;5.53;;;2.80;;
18265;SDS011;9259;48.194;16.322;2023-02-22T05:21:00;4.70;;;2.73;;
18265;SDS011;9259;48.194;16.322;2023-02-22T05:23:28;5.67;;;2.87;;
18265;SDS011;9259;48.194;16.322;2023-02-22T05:25:56;4.87;;;2.50;;
18265;SDS011;9259;48.194;16.322;2023-02-22T05:28:24;5.60;;;2.73;;
18265;SDS011;9259;48.194;16.322;2023-02-22T05:30:53;5.47;;;2.70;;
18265;SDS011;9259;48.194;16.322;2023-02-22T05:33:22;4.97;;;2.67;;
18265;SDS011;9259;48.194;16.322;2023-02-22T05:35:50;6.60;;;3.20;;
18265;SDS011;9259;48.194;16.322;2023-02-22T05:38:20;6.13;;;2.50;;
18265;SDS011;9259;48.194;16.322;2023-02-22T05:40:48;6.33;;;3.03;;
18265;SDS011;9259;48.194;16.322;2023-02-22T05:43:16;5.30;;;2.67;;
18265;SDS011;9259;48.194;16.322;2023-02-22T05:45:44;4.57;;;2.60;;
18265;SDS011;9259;48.194;16.322;2023-02-22T05:48:12;6.97;;;2.83;;
18265;SDS011;9259;48.194;16.322;2023-02-22T05:50:42;7.40;;;2.90;;
18265;SDS011;9259;48.194;16.322;2023-02-22T05:53:10;6.03;;;3.27;;
18265;SDS011;9259;48.194;16.322;2023-02-22T05:55:38;6.03;;;2.80;;
18265;SDS011;9259;48.194;16.322;2023-02-22T05:58:06;6.93;;;2.73;;
18265;SDS011;9259;48.194;16.322;2023-02-22T06:00:34;5.87;;;2.67;;
18265;SDS011;9259;48.194;16.322;2023-02-22T06:03:03;6.20;;;2.70;;
18265;SDS011;9259;48.194;16.322;2023-02-22T06:05:33;7.10;;;2.87;;
18265;SDS011;9259;48.194;16.322;2023-02-22T06:08:03;9.70;;;3.43;;
18265;SDS011;9259;48.194;16.322;2023-02-22T06:10:33;4.73;;;3.03;;
18265;SDS011;9259;48.194;16.322;2023-02-22T06:13:01;6.87;;;3.00;;
18265;SDS011;9259;48.194;16.322;2023-02-22T06:15:30;7.47;;;3.20;;
18265;SDS011;9259;48.194;16.322;2023-02-22T06:17:58;9.47;;;3.23;;
18265;SDS011;9259;48.194;16.322;2023-02-22T06:20:28;7.87;;;3.07;;
18265;SDS011;9259;48.194;16.322;2023-02-22T06:23:01;8.37;;;3.57;;
18265;SDS011;9259;48.194;16.322;2023-02-22T06:25:30;9.17;;;4.03;;
18265;SDS011;9259;48.194;16.322;2023-02-22T06:27:59;8.43;;;3.43;;
18265;SDS011;9259;48.194;16.322;2023-02-22T06:30:27;6.10;;;3.70;;
18265;SDS011;9259;48.194;16.322;2023-02-22T06:32:55;7.27;;;3.30;;
18265;SDS011;9259;48.194;16.322;2023-02-22T06:35:23;11.17;;;4.10;;
18265;SDS011;9259;48.194;16.322;2023-02-22T06:37:51;13.77;;;5.80;;
18265;SDS011;9259;48.194;16.322;2023-02-22T06:40:21;13.40;;;5.67;;
18265;SDS011;9259;48.194;16.322;2023-02-22T06:42:48;15.60;;;5.23;;
18265;SDS011;9259;48.194;16.322;2023-02-22T06:45:18;13.13;;;4.70;;
18265;SDS011;9259;48.194;16.322;2023-02-22T06:47:46;9.77;;;3.37;;
18265;SDS011;9259;48.194;16.322;2023-02-22T06:50:22;12.13;;;3.97;;
18265;SDS011;9259;48.194;16.322;2023-02-22T06:52:53;11.30;;;4.20;;
18265;SDS011;9259;48.194;16.322;2023-02-22T06:55:23;8.50;;;3.43;;
18265;SDS011;9259;48.194;16.322;2023-02-22T06:57:53;11.83;;;3.87;;
18265;SDS011;9259;48.194;16.322;2023-02-22T07:00:23;9.57;;;3.60;;
18265;SDS011;9259;48.194;16.322;2023-02-22T07:02:52;16.33;;;4.00;;
18265;SDS011;9259;48.194;16.322;2023-02-22T07:05:21;10.93;;;3.40;;
18265;SDS011;9259;48.194;16.322;2023-02-22T07:07:51;11.33;;;3.90;;
18265;SDS011;9259;48.194;16.322;2023-02-22T07:10:24;8.70;;;3.97;;
18265;SDS011;9259;48.194;16.322;2023-02-22T07:12:55;15.27;;;4.03;;
18265;SDS011;9259;48.194;16.322;2023-02-22T07:15:24;9.93;;;3.43;;
18265;SDS011;9259;48.194;16.322;2023-02-22T07:17:53;11.10;;;4.17;;
18265;SDS011;9259;48.194;16.322;2023-02-22T07:20:22;11.13;;;3.50;;
18265;SDS011;9259;48.194;16.322;2023-02-22T07:22:51;5.40;;;2.60;;
18265;SDS011;9259;48.194;16.322;2023-02-22T07:25:19;6.40;;;2.97;;
18265;SDS011;9259;48.194;16.322;2023-02-22T07:27:49;5.80;;;3.10;;
18265;SDS011;9259;48.194;16.322;2023-02-22T07:30:18;15.23;;;3.10;;
18265;SDS011;9259;48.194;16.322;2023-02-22T07:32:50;8.23;;;2.83;;
18265;SDS011;9259;48.194;16.322;2023-02-22T07:35:19;10.87;;;3.83;;
18265;SDS011;9259;48.194;16.322;2023-02-22T07:37:50;7.40;;;3.20;;
18265;SDS011;9259;48.194;16.322;2023-02-22T07:40:19;11.67;;;3.63;;
18265;SDS011;9259;48.194;16.322;2023-02-22T07:42:56;9.43;;;3.13;;
18265;SDS011;9259;48.194;16.322;2023-02-22T07:45:27;7.70;;;2.90;;
18265;SDS011;9259;48.194;16.322;2023-02-22T07:47:57;9.77;;;2.73;;
18265;SDS011;9259;48.194;16.322;2023-02-22T07:50:28;8.87;;;3.33;;
18265;SDS011;9259;48.194;16.322;2023-02-22T07:52:58;8.13;;;3.30;;
18265;SDS011;9259;48.194;16.322;2023-02-22T07:55:29;7.97;;;3.13;;
18265;SDS011;9259;48.194;16.322;2023-02-22T07:58:01;9.30;;;2.87;;
18265;SDS011;9259;48.194;16.322;2023-02-22T08:00:35;6.10;;;2.40;;
18265;SDS011;9259;48.194;16.322;2023-02-22T08:03:06;7.27;;;3.10;;
18265;SDS011;9259;48.194;16.322;2023-02-22T08:05:38;7.90;;;3.30;;
18265;SDS011;9259;48.194;16.322;2023-02-22T08:08:07;5.43;;;3.00;;
18265;SDS011;9259;48.194;16.322;2023-02-22T08:10:35;6.13;;;2.27;;
18265;SDS011;9259;48.194;16.322;2023-02-22T08:13:05;5.07;;;2.57;;
18265;SDS011;9259;48.194;16.322;2023-02-22T08:15:34;6.80;;;2.50;;
18265;SDS011;9259;48.194;16.322;2023-02-22T08:18:05;4.57;;;2.50;;
18265;SDS011;9259;48.194;16.322;2023-02-22T08:20:35;6.07;;;2.97;;
18265;SDS011;9259;48.194;16.322;2023-02-22T08:23:04;5.00;;;2.40;;
18265;SDS011;9259;48.194;16.322;2023-02-22T08:25:33;8.63;;;2.57;;
18265;SDS011;9259;48.194;16.322;2023-02-22T08:28:03;5.07;;;2.70;;
18265;SDS011;9259;48.194;16.322;2023-02-22T08:30:35;6.27;;;2.93;;
18265;SDS011;9259;48.194;16.322;2023-02-22T08:33:04;8.63;;;2.90;;
18265;SDS011;9259;48.194;16.322;2023-02-22T08:35:32;3.83;;;2.23;;
18265;SDS011;9259;48.194;16.322;2023-02-22T08:38:01;8.27;;;2.60;;
18265;SDS011;9259;48.194;16.322;2023-02-22T08:40:32;7.27;;;2.23;;
18265;SDS011;9259;48.194;16.322;2023-02-22T08:43:03;5.83;;;2.40;;
18265;SDS011;9259;48.194;16.322;2023-02-22T08:45:32;3.37;;;2.03;;
18265;SDS011;9259;48.194;16.322;2023-02-22T08:48:00;6.43;;;2.20;;
18265;SDS011;9259;48.194;16.322;2023-02-22T08:50:30;4.73;;;1.90;;
18265;SDS011;9259;48.194;16.322;2023-02-22T08:53:00;2.57;;;1.83;;
18265;SDS011;9259;48.194;16.322;2023-02-22T08:55:31;4.47;;;1.80;;
18265;SDS011;9259;48.194;16.322;2023-02-22T08:58:01;5.83;;;2.30;;
18265;SDS011;9259;48.194;16.322;2023-02-22T09:00:31;4.20;;;2.37;;
18265;SDS011;9259;48.194;16.322;2023-02-22T09:03:01;4.13;;;1.93;;
18265;SDS011;9259;48.194;16.322;2023-02-22T09:05:30;4.37;;;2.10;;
18265;SDS011;9259;48.194;16.322;2023-02-22T09:07:58;3.57;;;1.80;;
18265;SDS011;9259;48.194;16.322;2023-02-22T09:10:30;4.80;;;1.80;;
18265;SDS011;9259;48.194;16.322;2023-02-22T09:13:00;3.53;;;1.80;;
18265;SDS011;9259;48.194;16.322;2023-02-22T09:15:28;2.37;;;1.80;;
18265;SDS011;9259;48.194;16.322;2023-02-22T09:17:59;4.10;;;1.90;;
18265;SDS011;9259;48.194;16.322;2023-02-22T09:20:27;3.75;;;1.85;;
18265;SDS011;9259;48.194;16.322;2023-02-22T09:22:56;5.47;;;2.22;;
18265;SDS011;9259;48.194;16.322;2023-02-22T09:25:24;4.10;;;2.20;;
18265;SDS011;9259;48.194;16.322;2023-02-22T09:27:52;4.10;;;2.28;;
18265;SDS011;9259;48.194;16.322;2023-02-22T09:30:23;5.47;;;2.13;;
18265;SDS011;9259;48.194;16.322;2023-02-22T09:32:57;4.55;;;2.33;;
18265;SDS011;9259;48.194;16.322;2023-02-22T09:35:28;5.25;;;2.05;;
18265;SDS011;9259;48.194;16.322;2023-02-22T09:37:56;6.32;;;2.33;;
18265;SDS011;9259;48.194;16.322;2023-02-22T09:40:27;3.92;;;2.08;;
18265;SDS011;9259;48.194;16.322;2023-02-22T09:43:16;5.68;;;2.20;;
18265;SDS011;9259;48.194;16.322;2023-02-22T09:46:01;5.18;;;2.45;;
18265;SDS011;9259;48.194;16.322;2023-02-22T09:48:49;8.65;;;2.78;;
18265;SDS011;9259;48.194;16.322;2023-02-22T09:51:27;5.30;;;2.60;;
18265;SDS011;9259;48.194;16.322;2023-02-22T09:54:04;5.25;;;3.08;;
18265;SDS011;9259;48.194;16.322;2023-02-22T09:56:42;8.98;;;4.38;;
18265;SDS011;9259;48.194;16.322;2023-02-22T09:59:14;11.93;;;4.32;;
18265;SDS011;9259;48.194;16.322;2023-02-22T10:01:48;12.45;;;5.68;;
18265;SDS011;9259;48.194;16.322;2023-02-22T10:04:31;12.75;;;6.30;;
18265;SDS011;9259;48.194;16.322;2023-02-22T10:07:12;13.95;;;6.50;;
18265;SDS011;9259;48.194;16.322;2023-02-22T10:09:47;12.57;;;5.72;;
18265;SDS011;9259;48.194;16.322;2023-02-22T10:12:19;9.95;;;4.63;;
18265;SDS011;9259;48.194;16.322;2023-02-22T10:15:05;8.88;;;3.90;;
18265;SDS011;9259;48.194;16.322;2023-02-22T10:18:29;8.98;;;4.05;;
18265;SDS011;9259;48.194;16.322;2023-02-22T10:21:17;9.27;;;3.70;;
18265;SDS011;9259;48.194;16.322;2023-02-22T10:24:04;9.73;;;3.75;;
18265;SDS011;9259;48.194;16.322;2023-02-22T10:26:44;9.18;;;4.60;;
18265;SDS011;9259;48.194;16.322;2023-02-22T10:29:13;9.57;;;3.90;;
18265;SDS011;9259;48.194;16.322;2023-02-22T10:31:52;12.48;;;4.57;;
18265;SDS011;9259;48.194;16.322;2023-02-22T10:34:25;9.23;;;4.20;;
18265;SDS011;9259;48.194;16.322;2023-02-22T10:37:02;10.43;;;4.13;;
18265;SDS011;9259;48.194;16.322;2023-02-22T10:39:45;7.55;;;4.13;;
18265;SDS011;9259;48.194;16.322;2023-02-22T10:42:17;6.60;;;2.83;;
18265;SDS011;9259;48.194;16.322;2023-02-22T10:44:51;5.80;;;3.33;;
18265;SDS011;9259;48.194;16.322;2023-02-22T10:47:20;6.50;;;3.10;;
18265;SDS011;9259;48.194;16.322;2023-02-22T10:49:49;6.65;;;3.00;;
18265;SDS011;9259;48.194;16.322;2023-02-22T10:52:25;8.13;;;3.28;;
18265;SDS011;9259;48.194;16.322;2023-02-22T10:54:57;9.73;;;3.20;;
18265;SDS011;9259;48.194;16.322;2023-02-22T10:57:28;10.38;;;3.88;;
18265;SDS011;9259;48.194;16.322;2023-02-22T10:59:59;5.43;;;2.80;;
18265;SDS011;9259;48.194;16.322;2023-02-22T11:02:48;7.68;;;3.20;;
18265;SDS011;9259;48.194;16.322;2023-02-22T11:05:27;9.20;;;3.17;;
18265;SDS011;9259;48.194;16.322;2023-02-22T11:08:14;5.68;;;2.88;;
18265;SDS011;9259;48.194;16.322;2023-02-22T11:10:50;7.45;;;3.15;;
18265;SDS011;9259;48.194;16.322;2023-02-22T11:13:23;6.15;;;3.42;;
18265;SDS011;9259;48.194;16.322;2023-02-22T11:15:54;6.88;;;3.08;;
18265;SDS011;9259;48.194;16.322;2023-02-22T11:18:28;8.00;;;3.00;;
18265;SDS011;9259;48.194;16.322;2023-02-22T11:21:00;5.40;;;3.17;;
18265;SDS011;9259;48.194;16.322;2023-02-22T11:23:34;5.82;;;3.20;;
18265;SDS011;9259;48.194;16.322;2023-02-22T11:26:05;6.15;;;3.30;;
18265;SDS011;9259;48.194;16.322;2023-02-22T11:28:39;5.07;;;2.97;;
18265;SDS011;9259;48.194;16.322;2023-02-22T11:31:14;4.53;;;2.40;;
18265;SDS011;9259;48.194;16.322;2023-02-22T11:33:45;6.07;;;3.22;;
18265;SDS011;9259;48.194;16.322;2023-02-22T11:39:21;4.43;;;2.90;;
18265;SDS011;9259;48.194;16.322;2023-02-22T11:41:51;6.15;;;2.83;;
18265;SDS011;9259;48.194;16.322;2023-02-22T11:44:23;4.45;;;2.50;;
18265;SDS011;9259;48.194;16.322;2023-02-22T11:46:53;8.77;;;2.97;;
18265;SDS011;9259;48.194;16.322;2023-02-22T11:49:30;4.97;;;2.95;;
18265;SDS011;9259;48.194;16.322;2023-02-22T11:52:11;4.55;;;2.70;;
18265;SDS011;9259;48.194;16.322;2023-02-22T11:54:50;5.82;;;2.60;;
18265;SDS011;9259;48.194;16.322;2023-02-22T11:57:38;4.47;;;2.88;;
18265;SDS011;9259;48.194;16.322;2023-02-22T12:00:18;3.95;;;2.67;;
18265;SDS011;9259;48.194;16.322;2023-02-22T12:02:58;7.78;;;2.90;;
18265;SDS011;9259;48.194;16.322;2023-02-22T12:05:57;5.35;;;2.90;;
18265;SDS011;9259;48.194;16.322;2023-02-22T12:08:43;5.55;;;2.60;;
18265;SDS011;9259;48.194;16.322;2023-02-22T12:11:36;8.00;;;3.00;;
18265;SDS011;9259;48.194;16.322;2023-02-22T12:14:17;4.43;;;2.65;;
18265;SDS011;9259;48.194;16.322;2023-02-22T12:17:02;4.88;;;2.85;;
18265;SDS011;9259;48.194;16.322;2023-02-22T12:19:45;6.80;;;2.85;;
18265;SDS011;9259;48.194;16.322;2023-02-22T12:22:17;6.18;;;3.08;;
18265;SDS011;9259;48.194;16.322;2023-02-22T12:24:51;6.43;;;3.30;;
18265;SDS011;9259;48.194;16.322;2023-02-22T12:27:27;7.13;;;3.08;;
18265;SDS011;9259;48.194;16.322;2023-02-22T12:30:00;9.52;;;4.10;;
18265;SDS011;9259;48.194;16.322;2023-02-22T12:32:32;8.65;;;3.65;;
18265;SDS011;9259;48.194;16.322;2023-02-22T12:35:09;11.55;;;3.30;;
18265;SDS011;9259;48.194;16.322;2023-02-22T12:37:50;12.32;;;3.35;;
18265;SDS011;9259;48.194;16.322;2023-02-22T12:40:28;6.45;;;3.42;;
18265;SDS011;9259;48.194;16.322;2023-02-22T12:43:05;5.38;;;3.33;;
18265;SDS011;9259;48.194;16.322;2023-02-22T12:45:42;6.70;;;3.45;;
18265;SDS011;9259;48.194;16.322;2023-02-22T12:48:19;5.50;;;3.03;;
18265;SDS011;9259;48.194;16.322;2023-02-22T12:50:58;8.13;;;3.33;;
18265;SDS011;9259;48.194;16.322;2023-02-22T12:53:33;8.50;;;3.63;;
18265;SDS011;9259;48.194;16.322;2023-02-22T12:56:08;7.93;;;3.25;;
18265;SDS011;9259;48.194;16.322;2023-02-22T12:58:47;5.68;;;3.10;;
18265;SDS011;9259;48.194;16.322;2023-02-22T13:01:19;7.55;;;3.78;;
18265;SDS011;9259;48.194;16.322;2023-02-22T13:03:48;7.72;;;3.20;;
18265;SDS011;9259;48.194;16.322;2023-02-22T13:06:23;9.15;;;3.78;;
18265;SDS011;9259;48.194;16.322;2023-02-22T13:09:06;6.95;;;3.63;;
18265;SDS011;9259;48.194;16.322;2023-02-22T13:11:42;11.65;;;3.60;;
18265;SDS011;9259;48.194;16.322;2023-02-22T13:14:21;7.13;;;3.25;;
18265;SDS011;9259;48.194;16.322;2023-02-22T13:17:00;5.03;;;3.10;;
18265;SDS011;9259;48.194;16.322;2023-02-22T13:19:34;5.57;;;3.30;;
18265;SDS011;9259;48.194;16.322;2023-02-22T13:22:07;8.60;;;2.90;;
18265;SDS011;9259;48.194;16.322;2023-02-22T13:24:42;6.18;;;3.22;;
18265;SDS011;9259;48.194;16.322;2023-02-22T13:27:18;5.43;;;3.47;;
18265;SDS011;9259;48.194;16.322;2023-02-22T13:29:52;8.00;;;3.13;;
18265;SDS011;9259;48.194;16.322;2023-02-22T13:32:26;5.45;;;3.55;;
18265;SDS011;9259;48.194;16.322;2023-02-22T13:35:14;5.03;;;3.40;;
18265;SDS011;9259;48.194;16.322;2023-02-22T13:38:06;7.22;;;3.17;;
18265;SDS011;9259;48.194;16.322;2023-02-22T13:40:56;8.48;;;3.78;;
18265;SDS011;9259;48.194;16.322;2023-02-22T13:43:40;7.53;;;3.22;;
18265;SDS011;9259;48.194;16.322;2023-02-22T13:46:42;6.00;;;3.38;;
18265;SDS011;9259;48.194;16.322;2023-02-22T13:49:52;7.75;;;2.60;;
18265;SDS011;9259;48.194;16.322;2023-02-22T13:52:43;6.63;;;2.88;;
18265;SDS011;9259;48.194;16.322;2023-02-22T13:55:14;8.10;;;3.75;;
18265;SDS011;9259;48.194;16.322;2023-02-22T13:57:46;6.82;;;3.15;;
18265;SDS011;9259;48.194;16.322;2023-02-22T14:00:17;6.15;;;2.80;;
18265;SDS011;9259;48.194;16.322;2023-02-22T14:03:17;5.65;;;2.80;;
18265;SDS011;9259;48.194;16.322;2023-02-22T14:06:05;7.30;;;2.72;;
18265;SDS011;9259;48.194;16.322;2023-02-22T14:09:06;6.88;;;3.05;;
18265;SDS011;9259;48.194;16.322;2023-02-22T14:11:43;6.30;;;3.13;;
18265;SDS011;9259;48.194;16.322;2023-02-22T14:14:16;5.55;;;2.83;;
18265;SDS011;9259;48.194;16.322;2023-02-22T14:16:44;4.97;;;2.63;;
18265;SDS011;9259;48.194;16.322;2023-02-22T14:20:02;5.22;;;2.75;;
18265;SDS011;9259;48.194;16.322;2023-02-22T14:22:45;4.35;;;2.47;;
18265;SDS011;9259;48.194;16.322;2023-02-22T14:25:28;4.20;;;2.30;;
18265;SDS011;9259;48.194;16.322;2023-02-22T14:28:01;3.35;;;1.98;;
18265;SDS011;9259;48.194;16.322;2023-02-22T14:31:04;6.55;;;1.90;;
18265;SDS011;9259;48.194;16.322;2023-02-22T14:33:48;6.10;;;2.20;;
18265;SDS011;9259;48.194;16.322;2023-02-22T14:36:22;7.15;;;2.50;;
18265;SDS011;9259;48.194;16.322;2023-02-22T14:38:55;6.03;;;2.33;;
18265;SDS011;9259;48.194;16.322;2023-02-22T14:41:31;10.00;;;2.30;;
18265;SDS011;9259;48.194;16.322;2023-02-22T14:44:02;5.13;;;2.22;;
18265;SDS011;9259;48.194;16.322;2023-02-22T14:46:32;5.22;;;2.50;;
18265;SDS011;9259;48.194;16.322;2023-02-22T14:49:05;7.50;;;2.33;;
18265;SDS011;9259;48.194;16.322;2023-02-22T14:51:48;6.70;;;3.17;;
18265;SDS011;9259;48.194;16.322;2023-02-22T14:54:24;7.70;;;2.83;;
18265;SDS011;9259;48.194;16.322;2023-02-22T14:57:01;5.73;;;2.50;;
18265;SDS011;9259;48.194;16.322;2023-02-22T14:59:45;7.93;;;3.07;;
18265;SDS011;9259;48.194;16.322;2023-02-22T15:02:22;4.43;;;2.47;;
18265;SDS011;9259;48.194;16.322;2023-02-22T15:04:51;4.77;;;2.80;;
18265;SDS011;9259;48.194;16.322;2023-02-22T15:07:23;7.10;;;2.60;;
18265;SDS011;9259;48.194;16.322;2023-02-22T15:10:04;5.17;;;2.83;;
18265;SDS011;9259;48.194;16.322;2023-02-22T15:12:49;4.63;;;2.70;;
18265;SDS011;9259;48.194;16.322;2023-02-22T15:15:20;7.13;;;3.00;;
18265;SDS011;9259;48.194;16.322;2023-02-22T15:17:52;6.00;;;3.10;;
18265;SDS011;9259;48.194;16.322;2023-02-22T15:20:21;6.83;;;3.43;;
18265;SDS011;9259;48.194;16.322;2023-02-22T15:22:57;8.13;;;3.13;;
18265;SDS011;9259;48.194;16.322;2023-02-22T15:25:27;5.67;;;3.20;;
18265;SDS011;9259;48.194;16.322;2023-02-22T15:27:59;6.73;;;2.93;;
18265;SDS011;9259;48.194;16.322;2023-02-22T15:30:34;7.63;;;4.07;;
18265;SDS011;9259;48.194;16.322;2023-02-22T15:33:09;8.57;;;3.60;;
18265;SDS011;9259;48.194;16.322;2023-02-22T15:35:42;8.50;;;3.40;;